createdAt,value
2023-04-14T00:00:34.667Z,58.42
2023-04-14T00:02:56.573Z,57.30
2023-04-14T00:05:10.301Z,58.12
2023-04-14T00:07:15.137Z,58.00
2023-04-14T00:09:44.543Z,58.31
2023-04-14T00:14:24.174Z,58.90
2023-04-14T00:16:30.326Z,58.57
2023-04-14T00:18:34.969Z,57.87
2023-04-14T00:20:48.483Z,57.88
2023-04-14T00:25:18.128Z,57.23
2023-04-14T00:27:28.547Z,58.31
2023-04-14T00:29:45.272Z,58.59
2023-04-14T00:34:18.808Z,58.20
2023-04-14T00:36:20.635Z,58.46
2023-04-14T00:38:22.193Z,59.84
2023-04-14T00:40:30.315Z,58.95
2023-04-14T00:42:32.049Z,58.50
2023-04-14T00:44:48.824Z,58.67
2023-04-14T00:46:50.771Z,57.95
2023-04-14T00:49:23.336Z,57.93
2023-04-14T00:51:40.276Z,57.92
2023-04-14T00:56:25.329Z,59.20
2023-04-14T00:58:30.920Z,58.48
2023-04-14T01:00:33.928Z,58.27
2023-04-14T01:02:50.150Z,57.99
2023-04-14T01:05:28.610Z,57.55
2023-04-14T01:07:31.755Z,57.23
2023-04-14T01:09:42.295Z,58.14
2023-04-14T01:15:00.536Z,57.29
2023-04-14T01:17:27.679Z,57.38
2023-04-14T01:19:53.138Z,56.69
2023-04-14T01:36:52.003Z,58.04
2023-04-14T01:42:01.895Z,58.09
2023-04-14T01:44:43.321Z,57.58
2023-04-14T01:47:16.590Z,57.63
2023-04-14T01:49:22.735Z,57.17
2023-04-14T01:51:46.256Z,58.67
2023-04-14T01:56:18.993Z,59.55
2023-04-14T02:00:47.838Z,59.64
2023-04-14T02:04:26.352Z,60.56
2023-04-14T02:05:38.008Z,60.91
2023-04-14T02:07:42.768Z,60.00
2023-04-14T02:09:49.141Z,59.40
2023-04-14T02:12:00.561Z,60.07
2023-04-14T02:14:20.026Z,59.57
2023-04-14T02:16:29.181Z,59.25
2023-04-14T02:19:13.083Z,59.51
2023-04-14T02:24:03.902Z,59.05
2023-04-14T02:26:30.357Z,59.06
2023-04-14T02:29:17.590Z,60.09
2023-04-14T02:34:20.469Z,59.73
2023-04-14T02:41:33.434Z,58.81
2023-04-14T02:43:49.458Z,59.17
2023-04-14T02:46:17.554Z,60.72
2023-04-14T02:51:18.610Z,58.73
2023-04-14T02:55:47.861Z,59.60
2023-04-14T02:57:55.342Z,58.51
2023-04-14T03:00:09.135Z,59.17
2023-04-14T03:04:55.357Z,59.02
2023-04-14T03:07:34.383Z,58.33
2023-04-14T03:10:31.173Z,59.20
2023-04-14T03:14:48.381Z,59.60
2023-04-14T03:16:58.849Z,59.86
2023-04-14T03:19:16.176Z,60.53
2023-04-14T03:21:41.703Z,61.02
2023-04-14T03:23:54.910Z,61.24
2023-04-14T03:26:03.578Z,60.83
2023-04-14T03:28:36.278Z,61.19
2023-04-14T03:30:47.483Z,61.58
2023-04-14T03:32:53.489Z,61.71
2023-04-14T03:35:28.820Z,61.96
2023-04-14T03:46:12.554Z,62.22
2023-04-14T03:48:52.870Z,62.52
2023-04-14T03:51:35.607Z,62.42
2023-04-14T03:54:21.343Z,62.25
2023-04-14T04:00:15.986Z,62.29
2023-04-14T04:02:12.378Z,61.54
2023-04-14T04:04:50.144Z,60.88
2023-04-14T04:12:55.723Z,61.41
2023-04-14T04:14:57.332Z,61.02
2023-04-14T04:20:50.687Z,62.13
2023-04-14T04:23:17.661Z,62.37
2023-04-14T04:25:33.389Z,61.54
2023-04-14T04:27:54.948Z,63.75
2023-04-14T04:30:38.087Z,62.85
2023-04-14T04:32:39.770Z,62.16
2023-04-14T04:37:27.580Z,61.58
2023-04-14T04:40:09.599Z,61.51
2023-04-14T04:44:42.281Z,59.68
2023-04-14T04:47:08.741Z,59.47
2023-04-14T04:49:30.045Z,59.50
2023-04-14T04:51:43.765Z,59.60
2023-04-14T04:53:48.305Z,59.96
2023-04-14T04:55:56.026Z,60.51
2023-04-14T04:58:01.820Z,60.00
2023-04-14T05:00:24.416Z,60.42
2023-04-14T05:02:40.935Z,60.30
2023-04-14T05:05:00.542Z,59.65
2023-04-14T05:07:05.145Z,60.33
2023-04-14T05:09:40.941Z,60.95
2023-04-14T05:11:42.527Z,61.02
2023-04-14T05:13:47.390Z,61.20
2023-04-14T05:16:03.500Z,61.53
2023-04-14T05:18:08.102Z,60.89
2023-04-14T05:20:12.954Z,61.02
2023-04-14T05:22:18.614Z,59.92
2023-04-14T05:24:23.463Z,58.99
2023-04-14T05:27:01.837Z,58.46
2023-04-14T05:29:07.827Z,59.83
2023-04-14T05:31:41.238Z,60.01
2023-04-14T05:33:45.783Z,59.55
2023-04-14T05:35:50.627Z,59.91
2023-04-14T05:38:14.081Z,59.31
2023-04-14T05:40:55.873Z,59.39
2023-04-14T05:42:57.536Z,60.33
2023-04-14T05:45:14.825Z,60.21
2023-04-14T05:47:20.890Z,60.65
2023-04-14T05:49:35.421Z,61.38
2023-04-14T05:53:52.478Z,61.55
2023-04-14T05:55:57.218Z,61.18
2023-04-14T06:00:37.202Z,62.18
2023-04-14T06:02:49.666Z,61.72
2023-04-14T06:07:36.927Z,62.00
2023-04-14T06:09:46.467Z,61.33
2023-04-14T06:12:09.299Z,61.57
2023-04-14T06:14:19.551Z,62.12
2023-04-14T06:16:26.281Z,61.80
2023-04-14T06:21:24.265Z,61.92
2023-04-14T06:23:47.677Z,62.45
2023-04-14T06:25:49.228Z,62.27
2023-04-14T06:28:39.726Z,61.43
2023-04-14T06:30:45.246Z,62.02
2023-04-14T06:33:30.948Z,62.65
2023-04-14T06:36:04.049Z,62.73
2023-04-14T06:38:05.873Z,61.05
2023-04-14T06:40:09.030Z,61.33
2023-04-14T06:42:13.480Z,61.07
2023-04-14T06:44:33.749Z,59.88
2023-04-14T06:46:36.779Z,59.76
2023-04-14T06:48:45.927Z,59.64
2023-04-14T06:53:39.464Z,58.92
2023-04-14T06:56:00.292Z,59.64
2023-04-14T06:58:18.565Z,58.68
2023-04-14T07:00:23.529Z,58.40
2023-04-14T07:02:34.020Z,58.76
2023-04-14T07:04:55.463Z,57.71
2023-04-14T07:07:45.598Z,57.70
2023-04-14T07:09:54.439Z,59.44
2023-04-14T07:12:26.504Z,57.86
2023-04-14T07:14:31.856Z,57.86
2023-04-14T07:18:48.903Z,57.32
2023-04-14T07:21:21.338Z,56.92
2023-04-14T07:23:47.131Z,58.94
2023-04-14T07:26:01.891Z,56.92
2023-04-14T07:28:06.321Z,57.52
2023-04-14T07:30:08.738Z,57.10
2023-04-14T07:32:16.842Z,56.53
2023-04-14T07:34:27.400Z,56.54
2023-04-14T07:36:31.358Z,56.14
2023-04-14T07:41:03.892Z,57.37
2023-04-14T07:43:14.689Z,57.22
2023-04-14T07:45:16.391Z,56.41
2023-04-14T07:47:26.854Z,56.08
2023-04-14T07:49:28.516Z,58.06
2023-04-14T07:51:32.865Z,56.12
2023-04-14T07:53:34.931Z,56.20
2023-04-14T07:55:51.905Z,54.21
2023-04-14T07:58:03.870Z,54.48
2023-04-14T08:01:02.333Z,54.45
2023-04-14T08:03:09.422Z,54.66
2023-04-14T08:05:14.288Z,51.68
2023-04-14T08:07:21.749Z,53.20
2023-04-14T08:09:23.347Z,53.45
2023-04-14T08:11:27.944Z,51.83
2023-04-14T08:13:30.908Z,50.84
2023-04-14T08:15:45.961Z,52.51
2023-04-14T08:17:51.028Z,50.78
2023-04-14T08:20:11.396Z,52.85
2023-04-14T08:22:12.971Z,51.47
2023-04-14T08:24:37.676Z,53.13
2023-04-14T08:26:58.009Z,51.90
2023-04-14T08:29:03.123Z,51.27
2023-04-14T08:31:28.843Z,51.11
2023-04-14T08:34:00.444Z,49.77
2023-04-14T08:36:05.529Z,50.00
2023-04-14T08:38:18.427Z,49.19
2023-04-14T08:40:48.402Z,49.97
2023-04-14T08:42:59.051Z,48.65
2023-04-14T08:45:06.810Z,48.08
2023-04-14T08:47:17.118Z,47.54
2023-04-14T08:50:05.499Z,48.10
2023-04-14T08:52:53.211Z,46.78
2023-04-14T08:55:19.154Z,47.55
2023-04-14T08:57:27.437Z,47.00
2023-04-14T08:59:29.595Z,47.78
2023-04-14T09:02:13.330Z,48.91
2023-04-14T09:04:25.815Z,45.53
2023-04-14T09:06:35.676Z,46.99
2023-04-14T09:08:40.893Z,48.76
2023-04-14T09:10:54.242Z,49.06
2023-04-14T09:13:08.407Z,48.50
2023-04-14T09:15:18.919Z,49.25
2023-04-14T09:17:23.741Z,47.98
2023-04-14T09:20:36.793Z,47.01
2023-04-14T09:22:01.786Z,47.05
2023-04-14T09:24:16.924Z,47.48
2023-04-14T09:26:21.241Z,46.84
2023-04-14T09:28:44.427Z,47.89
2023-04-14T09:30:53.223Z,47.23
2023-04-14T09:33:07.733Z,46.32
2023-04-14T09:35:10.951Z,45.66
2023-04-14T09:37:24.757Z,45.47
2023-04-14T09:39:32.964Z,45.43
2023-04-14T09:41:47.649Z,44.69
2023-04-14T09:44:15.189Z,46.42
2023-04-14T09:48:56.991Z,44.65
2023-04-14T09:51:30.341Z,45.38
2023-04-14T09:53:33.209Z,45.05
2023-04-14T09:56:56.860Z,45.57
2023-04-14T09:59:17.076Z,44.31
2023-04-14T10:01:19.814Z,44.91
2023-04-14T10:03:34.226Z,42.98
2023-04-14T10:05:36.000Z,44.47
2023-04-14T10:07:42.132Z,43.64
2023-04-14T10:09:48.153Z,43.12
2023-04-14T10:12:09.482Z,42.98
2023-04-14T10:14:11.355Z,44.19
2023-04-14T10:16:13.631Z,44.51
2023-04-14T10:18:15.391Z,44.73
2023-04-14T10:20:17.643Z,43.39
2023-04-14T10:22:20.808Z,42.02
2023-04-14T10:24:24.305Z,42.02
2023-04-14T10:26:26.829Z,40.76
2023-04-14T10:28:30.920Z,41.79
2023-04-14T10:30:33.970Z,41.57
2023-04-14T10:32:37.672Z,40.61
2023-04-14T10:34:53.285Z,40.50
2023-04-14T10:36:54.915Z,40.57
2023-04-14T10:39:00.754Z,39.76
2023-04-14T10:41:05.476Z,41.05
2023-04-14T10:43:12.131Z,40.29
2023-04-14T10:45:13.758Z,40.17
2023-04-14T10:47:23.297Z,38.03
2023-04-14T10:49:29.807Z,37.21
2023-04-14T10:51:34.669Z,37.04
2023-04-14T10:53:38.646Z,37.40
2023-04-14T10:55:51.690Z,36.44
2023-04-14T10:58:04.049Z,34.61
2023-04-14T11:00:22.596Z,33.70
2023-04-14T11:02:25.830Z,34.91
2023-04-14T11:04:27.606Z,32.03
2023-04-14T11:06:50.949Z,31.22
2023-04-14T11:08:54.752Z,32.20
2023-04-14T11:11:00.822Z,30.95
2023-04-14T11:13:05.638Z,32.37
2023-04-14T11:15:07.957Z,33.67
2023-04-14T11:17:19.780Z,32.12
2023-04-14T11:19:21.530Z,32.10
2023-04-14T11:21:23.140Z,32.71
2023-04-14T11:23:28.417Z,31.01
2023-04-14T11:25:30.241Z,29.60
2023-04-14T11:27:32.591Z,32.08
2023-04-14T11:29:35.530Z,31.79
2023-04-14T11:31:37.144Z,31.38
2023-04-14T11:33:40.276Z,32.95
2023-04-14T11:35:42.217Z,33.94
2023-04-14T11:37:44.507Z,30.72
2023-04-14T11:39:46.466Z,31.67
2023-04-14T11:41:49.792Z,28.79
2023-04-14T11:43:51.473Z,32.84
2023-04-14T11:45:54.548Z,32.18
2023-04-14T11:47:57.378Z,30.58
2023-04-14T11:50:02.093Z,31.45
2023-04-14T11:52:07.360Z,31.43
2023-04-14T11:54:11.958Z,30.40
2023-04-14T11:56:13.670Z,29.24
2023-04-14T11:58:21.257Z,27.70
2023-04-14T12:00:23.339Z,27.27
2023-04-14T12:02:26.454Z,28.75
2023-04-14T12:04:30.951Z,28.71
2023-04-14T12:06:36.195Z,28.88
2023-04-14T12:08:37.862Z,28.14
2023-04-14T12:10:40.661Z,28.34
2023-04-14T12:12:42.206Z,28.96
2023-04-14T12:14:45.767Z,26.23
2023-04-14T12:16:47.722Z,29.46
2023-04-14T12:18:50.625Z,27.47
2023-04-14T12:20:53.921Z,26.18
2023-04-14T12:23:01.547Z,25.85
2023-04-14T12:25:11.008Z,23.85
2023-04-14T12:27:12.835Z,24.24
2023-04-14T12:29:14.407Z,25.76
2023-04-14T12:31:27.244Z,23.86
2023-04-14T12:33:30.568Z,25.12
2023-04-14T12:35:35.159Z,25.81
2023-04-14T12:37:36.749Z,25.74
2023-04-14T12:39:50.949Z,21.96
2023-04-14T12:41:52.721Z,24.14
2023-04-14T12:43:54.265Z,24.13
2023-04-14T12:45:55.944Z,22.75
2023-04-14T12:47:57.585Z,23.54
2023-04-14T12:50:00.868Z,21.69
2023-04-14T12:52:04.345Z,22.33
2023-04-14T12:54:07.003Z,21.47
2023-04-14T12:56:10.346Z,21.65
2023-04-14T12:58:11.893Z,22.46
2023-04-14T13:00:14.381Z,24.32
2023-04-14T13:02:18.884Z,24.63
2023-04-14T13:04:20.844Z,25.46
2023-04-14T13:06:24.183Z,24.89
2023-04-14T13:08:27.208Z,24.27
2023-04-14T13:10:28.793Z,25.38
2023-04-14T13:12:30.695Z,27.23
2023-04-14T13:14:32.277Z,26.85
2023-04-14T13:16:33.964Z,25.77
2023-04-14T13:18:35.720Z,27.56
2023-04-14T13:20:37.838Z,27.17
2023-04-14T13:22:39.438Z,26.64
2023-04-14T13:24:42.429Z,26.03
2023-04-14T13:26:43.966Z,27.00
2023-04-14T13:28:45.578Z,25.72
2023-04-14T13:30:48.143Z,26.50
2023-04-14T13:32:49.882Z,24.62
2023-04-14T13:34:52.538Z,24.50
2023-04-14T13:36:54.452Z,25.64
2023-04-14T13:38:56.378Z,26.64
2023-04-14T13:40:59.454Z,25.03
2023-04-14T13:43:01.086Z,24.96
2023-04-14T13:45:02.665Z,25.52
2023-04-14T13:47:04.218Z,24.95
2023-04-14T13:49:05.939Z,24.48
2023-04-14T13:51:07.520Z,24.35
2023-04-14T13:53:09.306Z,24.13
2023-04-14T13:55:11.033Z,23.03
2023-04-14T13:57:14.027Z,23.36
2023-04-14T13:59:15.614Z,23.48
2023-04-14T14:01:17.259Z,22.06
2023-04-14T14:03:19.050Z,22.38
2023-04-14T14:05:20.769Z,23.31
2023-04-14T14:07:22.280Z,22.70
2023-04-14T14:09:23.782Z,21.38
2023-04-14T14:11:25.381Z,22.93
2023-04-14T14:13:28.254Z,24.15
2023-04-14T14:15:29.861Z,22.97
2023-04-14T14:17:31.684Z,22.81
2023-04-14T14:19:33.259Z,21.61
2023-04-14T14:21:34.874Z,23.28
2023-04-14T14:23:36.492Z,22.71
2023-04-14T14:25:38.081Z,22.57
2023-04-14T14:27:39.639Z,22.44
2023-04-14T14:29:42.552Z,21.76
2023-04-14T14:31:44.126Z,23.03
2023-04-14T14:33:45.712Z,23.48
2023-04-14T14:35:47.368Z,22.51
2023-04-14T14:37:49.353Z,22.49
2023-04-14T14:39:50.948Z,23.44
2023-04-14T14:41:52.583Z,23.51
2023-04-14T14:43:54.136Z,24.61
2023-04-14T14:45:57.034Z,23.26
2023-04-14T14:47:59.175Z,23.28
2023-04-14T14:50:02.360Z,22.75
2023-04-14T14:52:05.878Z,23.77
2023-04-14T14:54:10.308Z,23.61
2023-04-14T14:56:12.125Z,25.73
2023-04-14T14:58:13.637Z,24.04
2023-04-14T15:00:15.719Z,25.46
2023-04-14T15:02:18.929Z,25.26
2023-04-14T15:04:20.752Z,26.35
2023-04-14T15:06:22.586Z,24.53
2023-04-14T15:08:24.169Z,26.17
2023-04-14T15:10:25.739Z,24.26
2023-04-14T15:12:27.404Z,25.57
2023-04-14T15:14:28.946Z,26.15
2023-04-14T15:16:30.594Z,26.91
2023-04-14T15:18:33.591Z,27.29
2023-04-14T15:20:35.165Z,26.74
2023-04-14T15:22:36.853Z,27.53
2023-04-14T15:24:38.630Z,27.28
2023-04-14T15:26:40.229Z,25.39
2023-04-14T15:28:41.816Z,26.44
2023-04-14T15:30:43.443Z,26.78
2023-04-14T15:32:45.106Z,26.75
2023-04-14T15:34:48.052Z,26.44
2023-04-14T15:36:49.686Z,26.59
2023-04-14T15:38:51.509Z,26.55
2023-04-14T15:40:53.730Z,25.87
2023-04-14T15:42:55.333Z,26.36
2023-04-14T15:44:56.907Z,26.43
2023-04-14T15:46:58.472Z,25.50
2023-04-14T15:49:00.059Z,26.67
2023-04-14T15:51:03.081Z,26.44
2023-04-14T15:53:07.272Z,26.80
2023-04-14T15:55:10.396Z,26.23
2023-04-14T15:57:12.460Z,26.31
2023-04-14T15:59:14.136Z,25.73
2023-04-14T16:01:15.850Z,27.82
2023-04-14T16:03:17.869Z,27.79
2023-04-14T16:05:19.574Z,29.19
2023-04-14T16:07:22.552Z,28.21
2023-04-14T16:09:24.454Z,28.43
2023-04-14T16:11:26.040Z,28.01
2023-04-14T16:13:27.720Z,26.78
2023-04-14T16:15:29.342Z,27.81
2023-04-14T16:17:30.882Z,27.52
2023-04-14T16:19:32.630Z,28.75
2023-04-14T16:21:34.241Z,28.11
2023-04-14T16:23:37.315Z,27.89
2023-04-14T16:25:39.093Z,28.07
2023-04-14T16:27:40.619Z,27.66
2023-04-14T16:29:42.438Z,28.42
2023-04-14T16:31:44.063Z,28.77
2023-04-14T16:33:48.574Z,27.99
2023-04-14T16:35:50.146Z,29.26
2023-04-14T16:37:51.733Z,29.00
2023-04-14T16:39:55.266Z,28.22
2023-04-14T16:41:56.885Z,28.16
2023-04-14T16:43:58.524Z,29.62
2023-04-14T16:46:04.172Z,27.87
2023-04-14T16:48:05.897Z,29.29
2023-04-14T16:50:08.199Z,29.27
2023-04-14T16:52:09.789Z,28.80
2023-04-14T16:54:11.477Z,29.31
2023-04-14T16:56:14.460Z,29.99
2023-04-14T16:58:16.026Z,31.12
2023-04-14T17:00:18.042Z,30.07
2023-04-14T17:02:19.699Z,32.00
2023-04-14T17:04:21.620Z,31.07
2023-04-14T17:06:23.554Z,29.72
2023-04-14T17:08:25.221Z,30.49
2023-04-14T17:10:26.980Z,30.57
2023-04-14T17:12:30.107Z,30.75
2023-04-14T17:14:31.681Z,31.40
2023-04-14T17:16:33.347Z,31.18
2023-04-14T17:18:35.188Z,31.58
2023-04-14T17:20:39.165Z,31.91
2023-04-14T17:22:40.885Z,30.91
2023-04-14T17:24:42.892Z,31.51
2023-04-14T17:26:44.698Z,30.70
2023-04-14T17:28:47.574Z,30.54
2023-04-14T17:30:49.281Z,29.72
2023-04-14T17:32:50.922Z,30.07
2023-04-14T17:34:52.618Z,29.88
2023-04-14T17:36:54.374Z,31.95
2023-04-14T17:38:56.384Z,30.85
2023-04-14T17:40:57.934Z,31.65
2023-04-14T17:42:59.475Z,31.20
2023-04-14T17:45:06.656Z,30.08
2023-04-14T17:47:08.311Z,31.09
2023-04-14T17:49:10.057Z,32.06
2023-04-14T17:51:11.740Z,33.35
2023-04-14T17:53:13.747Z,32.89
2023-04-14T17:55:15.620Z,32.64
2023-04-14T17:57:17.468Z,31.84
2023-04-14T17:59:20.142Z,34.14
2023-04-14T18:01:23.537Z,32.70
2023-04-14T18:03:25.402Z,31.82
2023-04-14T18:05:27.004Z,31.59
2023-04-14T18:07:28.528Z,35.43
2023-04-14T18:09:30.172Z,33.43
2023-04-14T18:11:31.773Z,32.96
2023-04-14T18:13:33.327Z,34.04
2023-04-14T18:15:35.006Z,32.94
2023-04-14T18:17:38.066Z,33.49
2023-04-14T18:19:39.683Z,33.56
2023-04-14T18:21:43.221Z,33.61
2023-04-14T18:24:47.920Z,33.06
2023-04-14T18:28:12.952Z,33.50
2023-04-14T18:30:14.533Z,34.12
2023-04-14T18:32:16.147Z,33.82
2023-04-14T18:34:19.154Z,34.37
2023-04-14T18:36:20.746Z,33.80
2023-04-14T18:38:22.736Z,33.92
2023-04-14T18:40:25.894Z,34.13
2023-04-14T18:42:29.153Z,34.16
2023-04-14T18:44:30.685Z,35.89
2023-04-14T18:46:32.300Z,34.87
2023-04-14T18:48:33.946Z,36.37
2023-04-14T18:50:36.825Z,35.79
2023-04-14T18:52:38.466Z,34.99
2023-04-14T18:54:40.034Z,35.32
2023-04-14T18:56:43.148Z,35.12
2023-04-14T18:58:44.784Z,35.44
2023-04-14T19:00:46.462Z,36.41
2023-04-14T19:02:48.245Z,37.39
2023-04-14T19:04:50.213Z,37.86
2023-04-14T19:06:53.261Z,38.39
2023-04-14T19:08:54.962Z,37.40
2023-04-14T19:10:57.995Z,37.59
2023-04-14T19:12:59.895Z,38.12
2023-04-14T19:15:01.413Z,39.14
2023-04-14T19:17:03.041Z,40.09
2023-04-14T19:19:04.850Z,40.85
2023-04-14T19:21:06.803Z,41.05
2023-04-14T19:23:09.713Z,41.49
2023-04-14T19:25:11.262Z,41.34
2023-04-14T19:27:13.281Z,40.88
2023-04-14T19:29:14.912Z,40.02
2023-04-14T19:31:16.559Z,40.17
2023-04-14T19:33:18.219Z,37.87
2023-04-14T19:35:19.985Z,37.08
2023-04-14T19:37:21.905Z,37.05
2023-04-14T19:39:24.886Z,37.06
2023-04-14T19:41:26.586Z,36.91
2023-04-14T19:43:28.231Z,36.98
2023-04-14T19:45:29.863Z,37.45
2023-04-14T19:47:31.575Z,37.60
2023-04-14T19:49:33.508Z,38.14
2023-04-14T19:51:35.059Z,37.46
2023-04-14T19:53:37.282Z,37.32
2023-04-14T19:55:40.323Z,37.04
2023-04-14T19:57:41.917Z,37.59
2023-04-14T19:59:46.054Z,36.46
2023-04-14T20:01:47.809Z,36.61
2023-04-14T20:04:07.082Z,36.89
2023-04-14T20:06:11.215Z,37.56
2023-04-14T20:08:12.965Z,36.58
2023-04-14T20:10:14.506Z,36.47
2023-04-14T20:12:17.801Z,36.08
2023-04-14T20:14:19.365Z,36.17
2023-04-14T20:16:21.237Z,36.84
2023-04-14T20:18:23.141Z,36.90
2023-04-14T20:20:24.986Z,36.60
2023-04-14T20:22:26.571Z,36.59
2023-04-14T20:24:28.158Z,37.53
2023-04-14T20:26:29.756Z,36.72
2023-04-14T20:28:32.981Z,37.46
2023-04-14T20:30:34.741Z,37.94
2023-04-14T20:32:36.494Z,38.19
2023-04-14T20:34:38.038Z,37.43
2023-04-14T20:36:39.625Z,38.95
2023-04-14T20:38:41.332Z,38.01
2023-04-14T20:40:43.018Z,39.18
2023-04-14T20:42:45.011Z,39.39
2023-04-14T20:44:47.942Z,39.60
2023-04-14T20:46:50.071Z,40.75
2023-04-14T20:48:51.756Z,40.60
2023-04-14T20:50:53.442Z,40.72
2023-04-14T20:52:55.474Z,41.46
2023-04-14T20:54:57.264Z,41.86
2023-04-14T20:56:58.798Z,42.18
2023-04-14T20:59:00.542Z,41.92
2023-04-14T21:01:03.760Z,42.97
2023-04-14T21:03:05.880Z,42.65
2023-04-14T21:05:08.078Z,42.38
2023-04-14T21:07:09.743Z,42.57
2023-04-14T21:09:11.542Z,42.69
2023-04-14T21:11:16.918Z,43.17
2023-04-14T21:15:24.685Z,43.39
2023-04-14T21:15:56.184Z,42.95
2023-04-14T21:18:00.224Z,43.59
2023-04-14T21:20:01.923Z,43.18
2023-04-14T21:22:09.282Z,43.43
2023-04-14T21:24:22.371Z,43.29
2023-04-14T21:26:24.242Z,43.96
2023-04-14T21:28:25.838Z,44.26
2023-04-14T21:30:27.695Z,43.90
2023-04-14T21:32:29.407Z,44.41
2023-04-14T21:34:32.579Z,43.29
2023-04-14T21:36:34.194Z,43.98
2023-04-14T21:38:37.165Z,43.75
2023-04-14T21:40:38.893Z,43.25
2023-04-14T21:42:40.484Z,42.80
2023-04-14T21:44:42.118Z,43.23
2023-04-14T21:46:43.984Z,43.69
2023-04-14T21:48:51.770Z,43.75
2023-04-14T21:50:54.890Z,43.79
2023-04-14T21:52:56.497Z,44.21
2023-04-14T21:54:58.179Z,43.74
2023-04-14T21:56:59.843Z,43.70
2023-04-14T21:59:01.655Z,43.85
2023-04-14T22:01:03.964Z,44.10
2023-04-14T22:03:05.724Z,44.00
2023-04-14T22:05:07.965Z,43.81
2023-04-14T22:07:10.953Z,43.29
2023-04-14T22:09:12.664Z,43.81
2023-04-14T22:11:14.375Z,44.19
2023-04-14T22:13:15.974Z,44.23
2023-04-14T22:15:20.549Z,44.24
2023-04-14T22:17:22.171Z,45.07
2023-04-14T22:19:23.784Z,44.65
2023-04-14T22:21:25.463Z,44.81
2023-04-14T22:23:28.762Z,44.57
2023-04-14T22:25:30.530Z,45.72
2023-04-14T22:27:32.566Z,44.47
2023-04-14T22:29:34.205Z,44.36
2023-04-14T22:31:35.814Z,45.23
2023-04-14T22:33:37.515Z,45.61
2023-04-14T22:35:39.277Z,44.84
2023-04-14T22:37:41.031Z,45.41
2023-04-14T22:39:44.070Z,44.69
2023-04-14T22:41:45.896Z,44.81
2023-04-14T22:43:47.497Z,45.44
2023-04-14T22:45:49.172Z,45.77
2023-04-14T22:47:59.653Z,45.00
2023-04-14T22:50:01.846Z,44.88
2023-04-14T22:52:03.583Z,45.31
2023-04-14T22:54:05.180Z,45.52
2023-04-14T22:56:08.279Z,44.49
2023-04-14T22:58:09.941Z,45.88
2023-04-14T23:00:14.654Z,45.27
2023-04-14T23:02:16.667Z,45.28
2023-04-14T23:04:18.506Z,45.06
2023-04-14T23:06:20.632Z,45.27
2023-04-14T23:08:22.225Z,45.77
2023-04-14T23:10:24.038Z,45.57
2023-04-14T23:12:27.075Z,45.92
2023-04-14T23:14:28.682Z,44.86
2023-04-14T23:16:31.137Z,44.96
2023-04-14T23:18:32.777Z,45.92
2023-04-14T23:20:34.398Z,45.91
2023-04-14T23:22:36.076Z,45.93
2023-04-14T23:24:37.716Z,46.21
2023-04-14T23:26:39.410Z,45.01
2023-04-14T23:28:42.354Z,45.49
2023-04-14T23:30:43.981Z,45.93
2023-04-14T23:32:45.805Z,45.34
2023-04-14T23:34:47.400Z,46.25
2023-04-14T23:36:48.985Z,45.78
2023-04-14T23:38:50.592Z,46.12
2023-04-14T23:40:52.284Z,46.80
2023-04-14T23:42:53.944Z,46.10
2023-04-14T23:44:57.067Z,46.30
2023-04-14T23:46:58.872Z,47.22
2023-04-14T23:49:03.092Z,46.63
2023-04-14T23:51:22.196Z,46.88
2023-04-14T23:53:24.798Z,45.94
2023-04-14T23:55:26.531Z,45.76
2023-04-14T23:57:30.903Z,47.49
2023-04-14T23:59:32.521Z,46.99
